Columbus Municipal Airport
KOLU : now visible

Airfield :











YOU CAN JOIN US ON...

 
LOGIN :

Register | Disclaimer

   EN    FR    IT 

 









Legend :    VFR   Marginal VFR   IFR   Intensive IFR   Very Intensive IFR
Visi :
Ceiling :
>= 8 km
>= 3000ft
5 to 8 km
1000 to 3000 ft
1500m to 5 km
500 to 1000 ft
800 to 1500m
200 to 500 ft
< 800m
< 200 ft
Symbols :   Thunderstorms  Fog  Heavy snow  Heavy precipitations  Wind > 20 kt






- Airport Elevation : 1447 ft


KOLU - Columbus Municipal

CURRENT METAR :
  • 152126Z AUTO 00000KT 10SM BKN007 OVC019 M08/M09 A3001 RMK AO2 CIG 007V011 FZRANO

EXPIRED METARs :
  • 152056Z AUTO 05004KT 9SM SCT009 OVC019 M08/M09 A3001 RMK AO2 SLP189 60000 T10781094 58006 FZRANO
  • 152033Z AUTO 02004KT 9SM OVC009 M08/M09 A3001 RMK AO2 CIG 008V011 FZRANO
  • 151956Z AUTO 00000KT 9SM OVC011 M08/M09 A3002 RMK AO2 SNE54 SLP192 P0000 T10781094 FZRANO
  • 151911Z AUTO 00000KT 9SM -SN BKN011 OVC018 M08/M10 A3003 RMK AO2 P0000 FZRANO
  • 151856Z AUTO 00000KT 9SM -SN FEW009 OVC018 M08/M10 A3003 RMK AO2 SLP195 P0000 T10781100 FZRANO
  • 151838Z AUTO 00000KT 9SM -SN FEW009 OVC020 M08/M10 A3002 RMK AO2 P0000 FZRANO

TAF N/A



MET'MAP, your aeronautical weather chart ! - Copyright ORBIFLY December 2007 - Disclaimer

ORBIFLY MET'MAP TEAM :

Programming & Development : Alexandra Zaïnal
Concept & original design : Baudouin d'Aumeries
Assistance for programming : Marc-Olivier Méhu
Technical & hardware support : Manuel Goepfert

Contact : metmap@orbifly.com




SOURCES & CREDITS :

   NOAA       Earth
Advisory